sensor_id;sensor_type;location;lat;lon;timestamp;P1;durP1;ratioP1;P2;durP2;ratioP2
35418;SDS011;21525;41.240;16.500;2023-04-24T00:01:32;6.55;;;3.15;;
35418;SDS011;21525;41.240;16.500;2023-04-24T00:03:59;4.78;;;3.30;;
35418;SDS011;21525;41.240;16.500;2023-04-24T00:06:25;4.95;;;3.72;;
35418;SDS011;21525;41.240;16.500;2023-04-24T00:09:00;6.40;;;3.28;;
35418;SDS011;21525;41.240;16.500;2023-04-24T00:11:27;6.18;;;3.00;;
35418;SDS011;21525;41.240;16.500;2023-04-24T00:13:52;5.15;;;3.40;;
35418;SDS011;21525;41.240;16.500;2023-04-24T00:16:18;5.22;;;2.85;;
35418;SDS011;21525;41.240;16.500;2023-04-24T00:18:44;7.20;;;2.97;;
35418;SDS011;21525;41.240;16.500;2023-04-24T00:21:13;7.68;;;3.50;;
35418;SDS011;21525;41.240;16.500;2023-04-24T00:23:41;5.78;;;2.90;;
35418;SDS011;21525;41.240;16.500;2023-04-24T00:26:07;8.07;;;3.55;;
35418;SDS011;21525;41.240;16.500;2023-04-24T00:28:33;5.38;;;3.70;;
35418;SDS011;21525;41.240;16.500;2023-04-24T00:30:59;5.00;;;3.05;;
35418;SDS011;21525;41.240;16.500;2023-04-24T00:33:24;5.55;;;3.22;;
35418;SDS011;21525;41.240;16.500;2023-04-24T00:35:50;7.00;;;3.40;;
35418;SDS011;21525;41.240;16.500;2023-04-24T00:38:16;8.00;;;3.35;;
35418;SDS011;21525;41.240;16.500;2023-04-24T00:40:42;6.55;;;3.22;;
35418;SDS011;21525;41.240;16.500;2023-04-24T00:43:07;5.75;;;2.80;;
35418;SDS011;21525;41.240;16.500;2023-04-24T00:45:34;8.25;;;3.08;;
35418;SDS011;21525;41.240;16.500;2023-04-24T00:48:00;6.25;;;3.47;;
35418;SDS011;21525;41.240;16.500;2023-04-24T00:50:26;10.55;;;3.50;;
35418;SDS011;21525;41.240;16.500;2023-04-24T00:52:53;5.50;;;3.47;;
35418;SDS011;21525;41.240;16.500;2023-04-24T00:55:19;7.25;;;3.22;;
35418;SDS011;21525;41.240;16.500;2023-04-24T00:57:45;7.10;;;3.30;;
35418;SDS011;21525;41.240;16.500;2023-04-24T01:00:12;4.80;;;3.28;;
35418;SDS011;21525;41.240;16.500;2023-04-24T01:02:39;8.85;;;3.40;;
35418;SDS011;21525;41.240;16.500;2023-04-24T01:05:14;6.85;;;3.65;;
35418;SDS011;21525;41.240;16.500;2023-04-24T01:07:41;7.57;;;3.17;;
35418;SDS011;21525;41.240;16.500;2023-04-24T01:10:14;10.30;;;3.58;;
35418;SDS011;21525;41.240;16.500;2023-04-24T01:12:40;7.97;;;3.55;;
35418;SDS011;21525;41.240;16.500;2023-04-24T01:15:06;8.25;;;3.70;;
35418;SDS011;21525;41.240;16.500;2023-04-24T01:17:34;6.93;;;3.55;;
35418;SDS011;21525;41.240;16.500;2023-04-24T01:20:00;6.53;;;3.65;;
35418;SDS011;21525;41.240;16.500;2023-04-24T01:22:26;6.80;;;3.65;;
35418;SDS011;21525;41.240;16.500;2023-04-24T01:24:52;7.40;;;3.35;;
35418;SDS011;21525;41.240;16.500;2023-04-24T01:27:19;6.75;;;3.88;;
35418;SDS011;21525;41.240;16.500;2023-04-24T01:29:45;5.78;;;3.22;;
35418;SDS011;21525;41.240;16.500;2023-04-24T01:32:14;7.82;;;3.50;;
35418;SDS011;21525;41.240;16.500;2023-04-24T01:34:40;9.27;;;4.20;;
35418;SDS011;21525;41.240;16.500;2023-04-24T01:37:06;18.05;;;10.63;;
35418;SDS011;21525;41.240;16.500;2023-04-24T01:39:32;13.50;;;7.22;;
35418;SDS011;21525;41.240;16.500;2023-04-24T01:41:58;9.93;;;5.32;;
35418;SDS011;21525;41.240;16.500;2023-04-24T01:44:26;8.43;;;4.78;;
35418;SDS011;21525;41.240;16.500;2023-04-24T01:46:52;7.88;;;4.00;;
35418;SDS011;21525;41.240;16.500;2023-04-24T01:49:19;5.43;;;3.72;;
35418;SDS011;21525;41.240;16.500;2023-04-24T01:51:45;5.80;;;4.10;;
35418;SDS011;21525;41.240;16.500;2023-04-24T01:54:11;7.88;;;3.88;;
35418;SDS011;21525;41.240;16.500;2023-04-24T01:56:38;6.93;;;3.85;;
35418;SDS011;21525;41.240;16.500;2023-04-24T01:59:06;4.85;;;3.50;;
35418;SDS011;21525;41.240;16.500;2023-04-24T02:01:34;7.70;;;4.30;;
35418;SDS011;21525;41.240;16.500;2023-04-24T02:04:04;5.90;;;3.85;;
35418;SDS011;21525;41.240;16.500;2023-04-24T02:06:30;9.85;;;3.85;;
35418;SDS011;21525;41.240;16.500;2023-04-24T02:08:59;9.55;;;4.45;;
35418;SDS011;21525;41.240;16.500;2023-04-24T02:11:25;8.10;;;3.83;;
35418;SDS011;21525;41.240;16.500;2023-04-24T02:13:51;7.75;;;3.75;;
35418;SDS011;21525;41.240;16.500;2023-04-24T02:16:18;5.32;;;3.70;;
35418;SDS011;21525;41.240;16.500;2023-04-24T02:18:44;5.03;;;3.53;;
35418;SDS011;21525;41.240;16.500;2023-04-24T02:21:10;7.80;;;4.10;;
35418;SDS011;21525;41.240;16.500;2023-04-24T02:23:36;7.95;;;4.20;;
35418;SDS011;21525;41.240;16.500;2023-04-24T02:26:01;6.97;;;3.75;;
35418;SDS011;21525;41.240;16.500;2023-04-24T02:28:27;11.50;;;4.63;;
35418;SDS011;21525;41.240;16.500;2023-04-24T02:30:53;8.55;;;4.50;;
35418;SDS011;21525;41.240;16.500;2023-04-24T02:33:21;7.20;;;3.80;;
35418;SDS011;21525;41.240;16.500;2023-04-24T02:35:47;7.43;;;3.85;;
35418;SDS011;21525;41.240;16.500;2023-04-24T02:38:13;8.10;;;4.15;;
35418;SDS011;21525;41.240;16.500;2023-04-24T02:40:38;9.82;;;3.70;;
35418;SDS011;21525;41.240;16.500;2023-04-24T02:43:04;6.05;;;3.53;;
35418;SDS011;21525;41.240;16.500;2023-04-24T02:45:30;8.07;;;3.90;;
35418;SDS011;21525;41.240;16.500;2023-04-24T02:47:56;6.20;;;3.35;;
35418;SDS011;21525;41.240;16.500;2023-04-24T02:50:21;7.47;;;4.20;;
35418;SDS011;21525;41.240;16.500;2023-04-24T02:52:47;5.82;;;3.58;;
35418;SDS011;21525;41.240;16.500;2023-04-24T02:55:14;4.93;;;2.97;;
35418;SDS011;21525;41.240;16.500;2023-04-24T02:57:40;8.25;;;3.65;;
35418;SDS011;21525;41.240;16.500;2023-04-24T03:00:06;8.57;;;3.97;;
35418;SDS011;21525;41.240;16.500;2023-04-24T03:02:32;6.07;;;4.03;;
35418;SDS011;21525;41.240;16.500;2023-04-24T03:04:59;11.02;;;5.60;;
35418;SDS011;21525;41.240;16.500;2023-04-24T03:07:25;13.80;;;7.45;;
35418;SDS011;21525;41.240;16.500;2023-04-24T03:09:50;11.07;;;7.28;;
35418;SDS011;21525;41.240;16.500;2023-04-24T03:12:16;10.40;;;6.20;;
35418;SDS011;21525;41.240;16.500;2023-04-24T03:14:43;7.07;;;3.83;;
35418;SDS011;21525;41.240;16.500;2023-04-24T03:17:09;5.45;;;3.20;;
35418;SDS011;21525;41.240;16.500;2023-04-24T03:19:35;5.53;;;3.30;;
35418;SDS011;21525;41.240;16.500;2023-04-24T03:22:08;7.07;;;3.03;;
35418;SDS011;21525;41.240;16.500;2023-04-24T03:24:36;3.92;;;2.95;;
35418;SDS011;21525;41.240;16.500;2023-04-24T03:27:02;5.47;;;3.30;;
35418;SDS011;21525;41.240;16.500;2023-04-24T03:29:46;5.53;;;3.05;;
35418;SDS011;21525;41.240;16.500;2023-04-24T03:32:13;4.93;;;3.00;;
35418;SDS011;21525;41.240;16.500;2023-04-24T03:34:39;5.00;;;3.20;;
35418;SDS011;21525;41.240;16.500;2023-04-24T03:37:06;4.93;;;3.20;;
35418;SDS011;21525;41.240;16.500;2023-04-24T03:39:33;4.90;;;3.08;;
35418;SDS011;21525;41.240;16.500;2023-04-24T03:41:59;7.57;;;3.58;;
35418;SDS011;21525;41.240;16.500;2023-04-24T03:44:36;4.20;;;3.20;;
35418;SDS011;21525;41.240;16.500;2023-04-24T03:47:02;5.45;;;3.70;;
35418;SDS011;21525;41.240;16.500;2023-04-24T03:49:29;6.07;;;3.80;;
35418;SDS011;21525;41.240;16.500;2023-04-24T03:51:55;7.78;;;3.53;;
35418;SDS011;21525;41.240;16.500;2023-04-24T03:54:22;6.10;;;3.70;;
35418;SDS011;21525;41.240;16.500;2023-04-24T03:56:50;11.35;;;3.53;;
35418;SDS011;21525;41.240;16.500;2023-04-24T03:59:16;6.57;;;3.50;;
35418;SDS011;21525;41.240;16.500;2023-04-24T04:01:46;4.72;;;3.40;;
35418;SDS011;21525;41.240;16.500;2023-04-24T04:04:14;6.57;;;3.50;;
35418;SDS011;21525;41.240;16.500;2023-04-24T04:06:42;4.70;;;2.85;;
35418;SDS011;21525;41.240;16.500;2023-04-24T04:09:09;5.07;;;2.85;;
35418;SDS011;21525;41.240;16.500;2023-04-24T04:11:36;5.35;;;3.28;;
35418;SDS011;21525;41.240;16.500;2023-04-24T04:14:01;5.38;;;3.05;;
35418;SDS011;21525;41.240;16.500;2023-04-24T04:16:28;4.82;;;3.08;;
35418;SDS011;21525;41.240;16.500;2023-04-24T04:19:00;4.72;;;2.60;;
35418;SDS011;21525;41.240;16.500;2023-04-24T04:21:26;4.85;;;2.88;;
35418;SDS011;21525;41.240;16.500;2023-04-24T04:24:00;4.57;;;2.50;;
35418;SDS011;21525;41.240;16.500;2023-04-24T04:26:31;4.88;;;2.80;;
35418;SDS011;21525;41.240;16.500;2023-04-24T04:29:03;4.00;;;2.45;;
35418;SDS011;21525;41.240;16.500;2023-04-24T04:31:30;5.22;;;3.08;;
35418;SDS011;21525;41.240;16.500;2023-04-24T04:34:00;5.65;;;2.63;;
35418;SDS011;21525;41.240;16.500;2023-04-24T04:36:27;9.15;;;3.00;;
35418;SDS011;21525;41.240;16.500;2023-04-24T04:39:01;5.13;;;3.03;;
35418;SDS011;21525;41.240;16.500;2023-04-24T04:42:03;6.22;;;3.67;;
35418;SDS011;21525;41.240;16.500;2023-04-24T04:44:40;5.85;;;3.70;;
35418;SDS011;21525;41.240;16.500;2023-04-24T04:47:08;5.25;;;3.85;;
35418;SDS011;21525;41.240;16.500;2023-04-24T04:49:37;7.40;;;3.80;;
35418;SDS011;21525;41.240;16.500;2023-04-24T04:52:08;11.45;;;3.70;;
35418;SDS011;21525;41.240;16.500;2023-04-24T04:54:34;7.95;;;3.92;;
35418;SDS011;21525;41.240;16.500;2023-04-24T04:57:00;9.32;;;3.78;;
35418;SDS011;21525;41.240;16.500;2023-04-24T04:59:27;6.82;;;3.90;;
35418;SDS011;21525;41.240;16.500;2023-04-24T05:01:59;8.25;;;3.95;;
35418;SDS011;21525;41.240;16.500;2023-04-24T05:04:25;9.70;;;3.85;;
35418;SDS011;21525;41.240;16.500;2023-04-24T05:06:51;6.57;;;4.00;;
35418;SDS011;21525;41.240;16.500;2023-04-24T05:09:18;10.65;;;4.30;;
35418;SDS011;21525;41.240;16.500;2023-04-24T05:11:49;7.65;;;5.00;;
35418;SDS011;21525;41.240;16.500;2023-04-24T05:14:16;10.70;;;5.38;;
35418;SDS011;21525;41.240;16.500;2023-04-24T05:16:43;9.30;;;5.03;;
35418;SDS011;21525;41.240;16.500;2023-04-24T05:19:10;8.77;;;4.47;;
35418;SDS011;21525;41.240;16.500;2023-04-24T05:21:43;7.78;;;4.38;;
35418;SDS011;21525;41.240;16.500;2023-04-24T05:24:10;9.40;;;4.72;;
35418;SDS011;21525;41.240;16.500;2023-04-24T05:26:54;9.73;;;4.70;;
35418;SDS011;21525;41.240;16.500;2023-04-24T05:29:25;7.68;;;4.53;;
35418;SDS011;21525;41.240;16.500;2023-04-24T05:31:53;9.60;;;4.70;;
35418;SDS011;21525;41.240;16.500;2023-04-24T05:34:19;8.75;;;4.10;;
35418;SDS011;21525;41.240;16.500;2023-04-24T05:36:48;10.02;;;5.10;;
35418;SDS011;21525;41.240;16.500;2023-04-24T05:39:16;8.15;;;5.07;;
35418;SDS011;21525;41.240;16.500;2023-04-24T05:41:42;14.27;;;4.85;;
35418;SDS011;21525;41.240;16.500;2023-04-24T05:44:08;9.75;;;4.70;;
35418;SDS011;21525;41.240;16.500;2023-04-24T05:46:34;12.88;;;7.53;;
35418;SDS011;21525;41.240;16.500;2023-04-24T05:49:01;13.68;;;6.22;;
35418;SDS011;21525;41.240;16.500;2023-04-24T05:51:28;12.63;;;5.97;;
35418;SDS011;21525;41.240;16.500;2023-04-24T05:53:53;10.77;;;6.10;;
35418;SDS011;21525;41.240;16.500;2023-04-24T05:56:20;11.27;;;6.53;;
35418;SDS011;21525;41.240;16.500;2023-04-24T05:58:48;13.93;;;7.70;;
35418;SDS011;21525;41.240;16.500;2023-04-24T06:01:14;15.02;;;6.05;;
35418;SDS011;21525;41.240;16.500;2023-04-24T06:03:41;16.13;;;6.05;;
35418;SDS011;21525;41.240;16.500;2023-04-24T06:06:07;17.73;;;6.15;;
35418;SDS011;21525;41.240;16.500;2023-04-24T06:08:34;13.82;;;7.00;;
35418;SDS011;21525;41.240;16.500;2023-04-24T06:11:01;13.35;;;6.00;;
35418;SDS011;21525;41.240;16.500;2023-04-24T06:13:27;13.60;;;5.85;;
35418;SDS011;21525;41.240;16.500;2023-04-24T06:16:18;14.27;;;6.15;;
35418;SDS011;21525;41.240;16.500;2023-04-24T06:18:51;12.82;;;5.85;;
35418;SDS011;21525;41.240;16.500;2023-04-24T06:21:18;11.50;;;5.72;;
35418;SDS011;21525;41.240;16.500;2023-04-24T06:23:44;13.85;;;6.22;;
35418;SDS011;21525;41.240;16.500;2023-04-24T06:26:11;12.38;;;6.20;;
35418;SDS011;21525;41.240;16.500;2023-04-24T06:28:37;14.93;;;7.65;;
35418;SDS011;21525;41.240;16.500;2023-04-24T06:31:03;12.40;;;6.25;;
35418;SDS011;21525;41.240;16.500;2023-04-24T06:33:29;11.60;;;6.63;;
35418;SDS011;21525;41.240;16.500;2023-04-24T06:35:55;11.73;;;6.50;;
35418;SDS011;21525;41.240;16.500;2023-04-24T06:38:21;14.82;;;6.55;;
35418;SDS011;21525;41.240;16.500;2023-04-24T06:40:47;15.32;;;6.72;;
35418;SDS011;21525;41.240;16.500;2023-04-24T06:43:13;12.93;;;6.95;;
35418;SDS011;21525;41.240;16.500;2023-04-24T06:45:40;13.65;;;6.88;;
35418;SDS011;21525;41.240;16.500;2023-04-24T06:48:05;13.15;;;6.72;;
35418;SDS011;21525;41.240;16.500;2023-04-24T06:50:31;16.98;;;7.45;;
35418;SDS011;21525;41.240;16.500;2023-04-24T06:52:57;19.23;;;8.25;;
35418;SDS011;21525;41.240;16.500;2023-04-24T06:55:23;19.58;;;7.63;;
35418;SDS011;21525;41.240;16.500;2023-04-24T06:57:48;15.27;;;7.32;;
35418;SDS011;21525;41.240;16.500;2023-04-24T07:00:14;13.18;;;6.68;;
35418;SDS011;21525;41.240;16.500;2023-04-24T07:02:40;20.98;;;10.52;;
35418;SDS011;21525;41.240;16.500;2023-04-24T07:05:06;15.30;;;9.05;;
35418;SDS011;21525;41.240;16.500;2023-04-24T07:07:33;15.43;;;6.15;;
35418;SDS011;21525;41.240;16.500;2023-04-24T07:09:59;16.35;;;6.50;;
35418;SDS011;21525;41.240;16.500;2023-04-24T07:12:25;15.63;;;5.88;;
35418;SDS011;21525;41.240;16.500;2023-04-24T07:14:51;9.20;;;4.80;;
35418;SDS011;21525;41.240;16.500;2023-04-24T07:17:17;16.77;;;6.20;;
35418;SDS011;21525;41.240;16.500;2023-04-24T07:19:43;20.90;;;7.30;;
35418;SDS011;21525;41.240;16.500;2023-04-24T07:22:08;11.27;;;5.43;;
35418;SDS011;21525;41.240;16.500;2023-04-24T07:24:36;15.55;;;6.28;;
35418;SDS011;21525;41.240;16.500;2023-04-24T07:27:04;11.48;;;5.80;;
35418;SDS011;21525;41.240;16.500;2023-04-24T07:29:29;16.92;;;6.75;;
35418;SDS011;21525;41.240;16.500;2023-04-24T07:31:55;14.98;;;6.55;;
35418;SDS011;21525;41.240;16.500;2023-04-24T07:34:21;14.23;;;6.63;;
35418;SDS011;21525;41.240;16.500;2023-04-24T07:36:47;14.25;;;7.00;;
35418;SDS011;21525;41.240;16.500;2023-04-24T07:39:13;16.25;;;7.45;;
35418;SDS011;21525;41.240;16.500;2023-04-24T07:41:39;24.02;;;7.45;;
35418;SDS011;21525;41.240;16.500;2023-04-24T07:44:05;15.07;;;6.93;;
35418;SDS011;21525;41.240;16.500;2023-04-24T07:46:31;15.07;;;5.40;;
35418;SDS011;21525;41.240;16.500;2023-04-24T07:48:57;16.65;;;6.13;;
35418;SDS011;21525;41.240;16.500;2023-04-24T07:51:26;14.65;;;6.22;;
35418;SDS011;21525;41.240;16.500;2023-04-24T07:53:56;14.77;;;6.65;;
35418;SDS011;21525;41.240;16.500;2023-04-24T07:56:22;23.90;;;7.65;;
35418;SDS011;21525;41.240;16.500;2023-04-24T07:58:47;20.10;;;6.80;;
35418;SDS011;21525;41.240;16.500;2023-04-24T08:01:13;13.43;;;6.47;;
35418;SDS011;21525;41.240;16.500;2023-04-24T08:03:39;12.60;;;6.70;;
35418;SDS011;21525;41.240;16.500;2023-04-24T08:06:04;12.15;;;6.43;;
35418;SDS011;21525;41.240;16.500;2023-04-24T08:08:30;14.55;;;6.50;;
35418;SDS011;21525;41.240;16.500;2023-04-24T08:10:56;11.60;;;6.75;;
35418;SDS011;21525;41.240;16.500;2023-04-24T08:13:22;14.90;;;7.45;;
35418;SDS011;21525;41.240;16.500;2023-04-24T08:15:48;15.02;;;6.95;;
35418;SDS011;21525;41.240;16.500;2023-04-24T08:18:14;17.27;;;7.90;;
35418;SDS011;21525;41.240;16.500;2023-04-24T08:20:41;19.17;;;8.88;;
35418;SDS011;21525;41.240;16.500;2023-04-24T08:23:07;20.48;;;8.85;;
35418;SDS011;21525;41.240;16.500;2023-04-24T08:25:33;19.08;;;7.88;;
35418;SDS011;21525;41.240;16.500;2023-04-24T08:28:01;17.02;;;6.88;;
35418;SDS011;21525;41.240;16.500;2023-04-24T08:30:28;15.10;;;6.72;;
35418;SDS011;21525;41.240;16.500;2023-04-24T08:32:54;17.75;;;6.75;;
35418;SDS011;21525;41.240;16.500;2023-04-24T08:35:20;16.15;;;5.78;;
35418;SDS011;21525;41.240;16.500;2023-04-24T08:37:46;14.05;;;5.32;;
35418;SDS011;21525;41.240;16.500;2023-04-24T08:40:12;14.85;;;5.38;;
35418;SDS011;21525;41.240;16.500;2023-04-24T08:42:41;17.42;;;4.53;;
35418;SDS011;21525;41.240;16.500;2023-04-24T08:45:11;16.35;;;4.82;;
35418;SDS011;21525;41.240;16.500;2023-04-24T08:47:39;14.70;;;4.72;;
35418;SDS011;21525;41.240;16.500;2023-04-24T08:50:06;10.30;;;3.67;;
35418;SDS011;21525;41.240;16.500;2023-04-24T08:52:33;11.93;;;4.88;;
35418;SDS011;21525;41.240;16.500;2023-04-24T08:55:00;10.07;;;3.70;;
35418;SDS011;21525;41.240;16.500;2023-04-24T08:57:26;20.42;;;4.13;;
35418;SDS011;21525;41.240;16.500;2023-04-24T08:59:53;15.95;;;4.07;;
35418;SDS011;21525;41.240;16.500;2023-04-24T09:02:20;14.38;;;4.13;;
35418;SDS011;21525;41.240;16.500;2023-04-24T09:04:47;15.88;;;5.32;;
35418;SDS011;21525;41.240;16.500;2023-04-24T09:07:14;15.68;;;4.40;;
35418;SDS011;21525;41.240;16.500;2023-04-24T09:09:42;19.48;;;6.45;;
35418;SDS011;21525;41.240;16.500;2023-04-24T09:12:09;16.90;;;7.43;;
35418;SDS011;21525;41.240;16.500;2023-04-24T09:14:35;16.50;;;6.57;;
35418;SDS011;21525;41.240;16.500;2023-04-24T09:17:05;16.90;;;6.78;;
35418;SDS011;21525;41.240;16.500;2023-04-24T09:19:31;18.17;;;6.25;;
35418;SDS011;21525;41.240;16.500;2023-04-24T09:21:58;17.13;;;4.93;;
35418;SDS011;21525;41.240;16.500;2023-04-24T09:24:23;17.35;;;5.60;;
35418;SDS011;21525;41.240;16.500;2023-04-24T09:26:55;19.48;;;5.25;;
35418;SDS011;21525;41.240;16.500;2023-04-24T09:29:27;13.98;;;4.90;;
35418;SDS011;21525;41.240;16.500;2023-04-24T09:31:53;10.90;;;4.53;;
35418;SDS011;21525;41.240;16.500;2023-04-24T09:34:23;18.88;;;6.43;;
35418;SDS011;21525;41.240;16.500;2023-04-24T09:36:50;13.50;;;5.65;;
35418;SDS011;21525;41.240;16.500;2023-04-24T09:39:17;11.57;;;5.90;;
35418;SDS011;21525;41.240;16.500;2023-04-24T09:41:53;10.50;;;5.40;;
35418;SDS011;21525;41.240;16.500;2023-04-24T09:44:24;12.77;;;7.28;;
35418;SDS011;21525;41.240;16.500;2023-04-24T09:46:53;16.80;;;6.53;;
35418;SDS011;21525;41.240;16.500;2023-04-24T09:52:09;16.40;;;6.70;;
35418;SDS011;21525;41.240;16.500;2023-04-24T09:54:36;18.75;;;6.40;;
35418;SDS011;21525;41.240;16.500;2023-04-24T09:57:03;11.07;;;5.43;;
35418;SDS011;21525;41.240;16.500;2023-04-24T09:59:30;15.13;;;6.00;;
35418;SDS011;21525;41.240;16.500;2023-04-24T10:01:56;13.00;;;4.80;;
35418;SDS011;21525;41.240;16.500;2023-04-24T10:04:25;13.73;;;4.28;;
35418;SDS011;21525;41.240;16.500;2023-04-24T10:06:53;15.87;;;6.63;;
35418;SDS011;21525;41.240;16.500;2023-04-24T10:09:24;25.52;;;11.70;;
35418;SDS011;21525;41.240;16.500;2023-04-24T10:11:52;10.00;;;3.50;;
35418;SDS011;21525;41.240;16.500;2023-04-24T10:14:19;10.13;;;3.88;;
35418;SDS011;21525;41.240;16.500;2023-04-24T10:16:49;10.82;;;4.97;;
35418;SDS011;21525;41.240;16.500;2023-04-24T10:19:18;15.48;;;3.45;;
35418;SDS011;21525;41.240;16.500;2023-04-24T10:21:44;13.30;;;3.47;;
35418;SDS011;21525;41.240;16.500;2023-04-24T10:24:18;12.77;;;3.97;;
35418;SDS011;21525;41.240;16.500;2023-04-24T10:26:46;14.75;;;5.72;;
35418;SDS011;21525;41.240;16.500;2023-04-24T10:29:14;13.02;;;6.00;;
35418;SDS011;21525;41.240;16.500;2023-04-24T10:31:43;10.57;;;4.50;;
35418;SDS011;21525;41.240;16.500;2023-04-24T10:34:13;9.60;;;4.35;;
35418;SDS011;21525;41.240;16.500;2023-04-24T10:37:14;13.35;;;4.45;;
35418;SDS011;21525;41.240;16.500;2023-04-24T10:39:33;10.48;;;3.70;;
35418;SDS011;21525;41.240;16.500;2023-04-24T10:42:00;10.93;;;4.07;;
35418;SDS011;21525;41.240;16.500;2023-04-24T10:44:27;14.13;;;4.47;;
35418;SDS011;21525;41.240;16.500;2023-04-24T10:47:02;10.18;;;4.10;;
35418;SDS011;21525;41.240;16.500;2023-04-24T10:49:28;6.97;;;3.55;;
35418;SDS011;21525;41.240;16.500;2023-04-24T10:51:59;13.80;;;4.22;;
35418;SDS011;21525;41.240;16.500;2023-04-24T10:54:36;13.48;;;3.97;;
35418;SDS011;21525;41.240;16.500;2023-04-24T10:59:49;9.38;;;3.92;;
35418;SDS011;21525;41.240;16.500;2023-04-24T11:02:17;11.25;;;3.80;;
35418;SDS011;21525;41.240;16.500;2023-04-24T11:04:43;10.10;;;4.68;;
35418;SDS011;21525;41.240;16.500;2023-04-24T11:07:10;9.55;;;3.85;;
35418;SDS011;21525;41.240;16.500;2023-04-24T11:09:37;13.32;;;4.47;;
35418;SDS011;21525;41.240;16.500;2023-04-24T11:12:07;8.95;;;4.03;;
35418;SDS011;21525;41.240;16.500;2023-04-24T11:17:36;7.80;;;3.92;;
35418;SDS011;21525;41.240;16.500;2023-04-24T11:20:06;9.50;;;4.60;;
35418;SDS011;21525;41.240;16.500;2023-04-24T11:22:35;9.85;;;4.63;;
35418;SDS011;21525;41.240;16.500;2023-04-24T11:25:05;7.90;;;3.53;;
35418;SDS011;21525;41.240;16.500;2023-04-24T11:27:38;9.85;;;4.00;;
35418;SDS011;21525;41.240;16.500;2023-04-24T11:30:06;6.47;;;3.50;;
35418;SDS011;21525;41.240;16.500;2023-04-24T11:35:05;11.25;;;4.47;;
35418;SDS011;21525;41.240;16.500;2023-04-24T11:40:02;11.07;;;4.60;;
35418;SDS011;21525;41.240;16.500;2023-04-24T11:42:39;12.10;;;4.45;;
35418;SDS011;21525;41.240;16.500;2023-04-24T11:45:10;11.65;;;4.50;;
35418;SDS011;21525;41.240;16.500;2023-04-24T11:47:39;13.13;;;4.78;;
35418;SDS011;21525;41.240;16.500;2023-04-24T11:50:06;11.73;;;4.35;;
35418;SDS011;21525;41.240;16.500;2023-04-24T11:52:37;11.10;;;4.30;;
35418;SDS011;21525;41.240;16.500;2023-04-24T11:55:04;15.15;;;4.30;;
35418;SDS011;21525;41.240;16.500;2023-04-24T12:00:02;14.55;;;4.50;;
35418;SDS011;21525;41.240;16.500;2023-04-24T12:02:37;9.13;;;4.40;;
35418;SDS011;21525;41.240;16.500;2023-04-24T12:05:03;10.52;;;4.32;;
35418;SDS011;21525;41.240;16.500;2023-04-24T12:07:29;14.15;;;5.10;;
35418;SDS011;21525;41.240;16.500;2023-04-24T12:09:56;15.43;;;9.15;;
35418;SDS011;21525;41.240;16.500;2023-04-24T12:12:24;17.10;;;10.13;;
35418;SDS011;21525;41.240;16.500;2023-04-24T12:14:57;14.18;;;7.03;;
35418;SDS011;21525;41.240;16.500;2023-04-24T12:17:27;9.95;;;4.65;;
35418;SDS011;21525;41.240;16.500;2023-04-24T12:19:58;16.85;;;4.93;;
35418;SDS011;21525;41.240;16.500;2023-04-24T12:22:45;13.60;;;4.18;;
35418;SDS011;21525;41.240;16.500;2023-04-24T12:25:16;13.82;;;4.85;;
35418;SDS011;21525;41.240;16.500;2023-04-24T12:27:43;11.07;;;4.73;;
35418;SDS011;21525;41.240;16.500;2023-04-24T12:30:12;12.75;;;5.43;;
35418;SDS011;21525;41.240;16.500;2023-04-24T12:32:42;10.75;;;4.30;;
35418;SDS011;21525;41.240;16.500;2023-04-24T12:35:09;10.77;;;4.88;;
35418;SDS011;21525;41.240;16.500;2023-04-24T12:37:34;10.20;;;4.63;;
35418;SDS011;21525;41.240;16.500;2023-04-24T12:40:08;9.70;;;5.03;;
35418;SDS011;21525;41.240;16.500;2023-04-24T12:42:35;12.23;;;5.10;;
35418;SDS011;21525;41.240;16.500;2023-04-24T12:45:07;14.05;;;4.85;;
35418;SDS011;21525;41.240;16.500;2023-04-24T12:47:33;14.70;;;5.10;;
35418;SDS011;21525;41.240;16.500;2023-04-24T12:50:00;9.38;;;5.10;;
35418;SDS011;21525;41.240;16.500;2023-04-24T12:52:27;5.45;;;3.38;;
35418;SDS011;21525;41.240;16.500;2023-04-24T12:54:55;6.00;;;3.63;;
35418;SDS011;21525;41.240;16.500;2023-04-24T12:57:23;6.75;;;3.47;;
35418;SDS011;21525;41.240;16.500;2023-04-24T12:59:49;9.32;;;4.20;;
35418;SDS011;21525;41.240;16.500;2023-04-24T13:02:16;8.10;;;3.55;;
35418;SDS011;21525;41.240;16.500;2023-04-24T13:04:46;8.52;;;3.75;;
35418;SDS011;21525;41.240;16.500;2023-04-24T13:07:12;6.22;;;3.30;;
35418;SDS011;21525;41.240;16.500;2023-04-24T13:09:39;9.77;;;2.92;;
35418;SDS011;21525;41.240;16.500;2023-04-24T13:12:06;8.65;;;3.53;;
35418;SDS011;21525;41.240;16.500;2023-04-24T13:14:32;9.43;;;3.13;;
35418;SDS011;21525;41.240;16.500;2023-04-24T13:16:58;8.07;;;2.75;;
35418;SDS011;21525;41.240;16.500;2023-04-24T13:19:24;6.40;;;2.80;;
35418;SDS011;21525;41.240;16.500;2023-04-24T13:21:53;5.43;;;2.67;;
35418;SDS011;21525;41.240;16.500;2023-04-24T13:24:21;5.13;;;2.63;;
35418;SDS011;21525;41.240;16.500;2023-04-24T13:26:50;5.45;;;2.65;;
35418;SDS011;21525;41.240;16.500;2023-04-24T13:29:16;6.97;;;2.45;;
35418;SDS011;21525;41.240;16.500;2023-04-24T13:31:42;4.72;;;3.17;;
35418;SDS011;21525;41.240;16.500;2023-04-24T13:34:08;5.25;;;2.90;;
35418;SDS011;21525;41.240;16.500;2023-04-24T13:36:34;6.30;;;3.05;;
35418;SDS011;21525;41.240;16.500;2023-04-24T13:39:00;5.30;;;2.72;;
35418;SDS011;21525;41.240;16.500;2023-04-24T13:41:26;7.72;;;2.90;;
35418;SDS011;21525;41.240;16.500;2023-04-24T13:43:52;4.00;;;2.50;;
35418;SDS011;21525;41.240;16.500;2023-04-24T13:46:17;6.10;;;2.70;;
35418;SDS011;21525;41.240;16.500;2023-04-24T13:48:43;6.32;;;3.08;;
35418;SDS011;21525;41.240;16.500;2023-04-24T13:51:10;6.53;;;2.40;;
35418;SDS011;21525;41.240;16.500;2023-04-24T13:53:36;5.32;;;2.88;;
35418;SDS011;21525;41.240;16.500;2023-04-24T13:56:03;5.90;;;2.30;;
35418;SDS011;21525;41.240;16.500;2023-04-24T13:58:31;7.75;;;2.58;;
35418;SDS011;21525;41.240;16.500;2023-04-24T14:00:57;6.03;;;2.65;;
35418;SDS011;21525;41.240;16.500;2023-04-24T14:03:23;5.25;;;2.85;;
35418;SDS011;21525;41.240;16.500;2023-04-24T14:05:49;6.43;;;2.75;;
35418;SDS011;21525;41.240;16.500;2023-04-24T14:08:15;5.55;;;2.78;;
35418;SDS011;21525;41.240;16.500;2023-04-24T14:10:41;6.53;;;3.40;;
35418;SDS011;21525;41.240;16.500;2023-04-24T14:13:08;15.43;;;4.15;;
35418;SDS011;21525;41.240;16.500;2023-04-24T14:15:35;12.23;;;3.85;;
35418;SDS011;21525;41.240;16.500;2023-04-24T14:18:01;14.75;;;5.28;;
35418;SDS011;21525;41.240;16.500;2023-04-24T14:20:28;14.88;;;4.68;;
35418;SDS011;21525;41.240;16.500;2023-04-24T14:22:54;16.55;;;4.80;;
35418;SDS011;21525;41.240;16.500;2023-04-24T14:25:20;13.52;;;4.35;;
35418;SDS011;21525;41.240;16.500;2023-04-24T14:27:47;13.75;;;4.72;;
35418;SDS011;21525;41.240;16.500;2023-04-24T14:30:13;19.00;;;5.35;;
35418;SDS011;21525;41.240;16.500;2023-04-24T14:32:40;14.27;;;5.43;;
35418;SDS011;21525;41.240;16.500;2023-04-24T14:35:06;16.73;;;4.63;;
35418;SDS011;21525;41.240;16.500;2023-04-24T14:37:32;21.73;;;4.88;;
35418;SDS011;21525;41.240;16.500;2023-04-24T14:39:58;20.85;;;4.90;;
35418;SDS011;21525;41.240;16.500;2023-04-24T14:42:24;16.83;;;4.88;;
35418;SDS011;21525;41.240;16.500;2023-04-24T14:44:50;21.08;;;6.07;;
35418;SDS011;21525;41.240;16.500;2023-04-24T14:47:16;20.73;;;5.78;;